sensor_id;sensor_type;location;lat;lon;timestamp;pressure;altitude;pressure_sealevel;temperature;humidity
46846;BME280;33947;46.804;134.252;2023-01-31T00:00:11;101094.88;;;-26.58;53.18
46846;BME280;33947;46.804;134.252;2023-01-31T00:03:16;101116.56;;;-26.51;54.30
46846;BME280;33947;46.804;134.252;2023-01-31T00:06:23;101124.56;;;-26.00;54.66
46846;BME280;33947;46.804;134.252;2023-01-31T00:09:29;101117.88;;;-25.67;54.28
46846;BME280;33947;46.804;134.252;2023-01-31T00:12:34;101120.69;;;-25.51;54.30
46846;BME280;33947;46.804;134.252;2023-01-31T00:15:39;101111.22;;;-25.53;53.95
46846;BME280;33947;46.804;134.252;2023-01-31T00:18:45;101112.69;;;-25.48;54.69
46846;BME280;33947;46.804;134.252;2023-01-31T00:21:49;101039.00;;;-25.28;55.63
46846;BME280;33947;46.804;134.252;2023-01-31T00:24:56;101093.97;;;-24.46;55.01
46846;BME280;33947;46.804;134.252;2023-01-31T00:28:01;101126.94;;;-23.50;55.54
46846;BME280;33947;46.804;134.252;2023-01-31T00:31:08;100972.75;;;-23.72;52.12
46846;BME280;33947;46.804;134.252;2023-01-31T00:34:14;101117.53;;;-23.15;52.22
46846;BME280;33947;46.804;134.252;2023-01-31T00:37:21;101116.00;;;-22.32;53.78
46846;BME280;33947;46.804;134.252;2023-01-31T00:40:28;101019.25;;;-22.18;52.24
46846;BME280;33947;46.804;134.252;2023-01-31T00:43:37;101094.25;;;-20.99;52.28
46846;BME280;33947;46.804;134.252;2023-01-31T00:46:48;101069.94;;;-20.57;52.83
46846;BME280;33947;46.804;134.252;2023-01-31T00:49:56;101072.19;;;-19.86;51.76
46846;BME280;33947;46.804;134.252;2023-01-31T00:53:06;101052.88;;;-19.43;52.57
46846;BME280;33947;46.804;134.252;2023-01-31T00:56:19;101086.34;;;-18.85;51.98
46846;BME280;33947;46.804;134.252;2023-01-31T00:59:38;101061.94;;;-18.14;50.44
46846;BME280;33947;46.804;134.252;2023-01-31T01:02:46;101047.06;;;-17.47;50.03
46846;BME280;33947;46.804;134.252;2023-01-31T01:05:53;101047.75;;;-17.11;48.80
46846;BME280;33947;46.804;134.252;2023-01-31T01:09:02;101039.47;;;-17.19;47.27
46846;BME280;33947;46.804;134.252;2023-01-31T01:12:08;101050.16;;;-16.65;47.86
46846;BME280;33947;46.804;134.252;2023-01-31T01:15:14;101068.25;;;-16.13;46.71
46846;BME280;33947;46.804;134.252;2023-01-31T01:18:24;101069.47;;;-15.60;47.05
46846;BME280;33947;46.804;134.252;2023-01-31T01:21:33;101033.00;;;-15.19;43.23
46846;BME280;33947;46.804;134.252;2023-01-31T01:24:46;100994.06;;;-15.78;43.73
46846;BME280;33947;46.804;134.252;2023-01-31T01:27:53;101084.97;;;-15.27;44.00
46846;BME280;33947;46.804;134.252;2023-01-31T01:31:05;101071.44;;;-15.36;43.70
46846;BME280;33947;46.804;134.252;2023-01-31T01:34:14;101076.84;;;-15.02;44.07
46846;BME280;33947;46.804;134.252;2023-01-31T01:37:22;101076.88;;;-14.71;43.29
46846;BME280;33947;46.804;134.252;2023-01-31T01:40:36;101077.09;;;-14.99;42.89
46846;BME280;33947;46.804;134.252;2023-01-31T01:43:57;101080.56;;;-14.88;43.48
46846;BME280;33947;46.804;134.252;2023-01-31T01:47:04;101035.56;;;-15.08;43.88
46846;BME280;33947;46.804;134.252;2023-01-31T01:53:24;101072.75;;;-13.95;42.56
46846;BME280;33947;46.804;134.252;2023-01-31T01:56:39;101018.44;;;-14.15;41.83
46846;BME280;33947;46.804;134.252;2023-01-31T01:59:52;101061.59;;;-13.75;42.21
46846;BME280;33947;46.804;134.252;2023-01-31T02:03:14;101050.25;;;-13.22;41.06
46846;BME280;33947;46.804;134.252;2023-01-31T02:06:28;101000.41;;;-13.39;40.97
46846;BME280;33947;46.804;134.252;2023-01-31T02:10:16;101039.72;;;-13.15;40.61
46846;BME280;33947;46.804;134.252;2023-01-31T02:13:29;101052.19;;;-13.42;40.89
46846;BME280;33947;46.804;134.252;2023-01-31T02:16:38;100980.66;;;-13.30;41.73
46846;BME280;33947;46.804;134.252;2023-01-31T02:41:15;101026.06;;;-11.37;40.09
46846;BME280;33947;46.804;134.252;2023-01-31T02:51:44;101007.94;;;-12.60;42.42
46846;BME280;33947;46.804;134.252;2023-01-31T02:55:25;101013.06;;;-12.60;43.18
46846;BME280;33947;46.804;134.252;2023-01-31T02:59:13;100992.38;;;-12.16;41.49
46846;BME280;33947;46.804;134.252;2023-01-31T03:02:45;101007.50;;;-12.07;39.49
46846;BME280;33947;46.804;134.252;2023-01-31T03:16:26;100980.19;;;-13.36;40.80
46846;BME280;33947;46.804;134.252;2023-01-31T03:23:31;101000.91;;;-13.21;40.80
46846;BME280;33947;46.804;134.252;2023-01-31T03:26:41;100951.19;;;-13.36;41.05
46846;BME280;33947;46.804;134.252;2023-01-31T03:30:01;100993.88;;;-12.89;40.55
46846;BME280;33947;46.804;134.252;2023-01-31T03:33:51;100990.28;;;-13.15;40.92
46846;BME280;33947;46.804;134.252;2023-01-31T03:40:39;100973.84;;;-13.41;41.72
46846;BME280;33947;46.804;134.252;2023-01-31T03:44:18;100959.75;;;-13.36;42.17
46846;BME280;33947;46.804;134.252;2023-01-31T03:47:43;100916.69;;;-13.65;41.30
46846;BME280;33947;46.804;134.252;2023-01-31T03:51:01;100938.66;;;-14.12;42.88
46846;BME280;33947;46.804;134.252;2023-01-31T03:54:28;100911.59;;;-14.10;42.82
46846;BME280;33947;46.804;134.252;2023-01-31T03:57:38;100965.28;;;-13.54;42.96
46846;BME280;33947;46.804;134.252;2023-01-31T04:00:51;100960.06;;;-13.77;43.53
46846;BME280;33947;46.804;134.252;2023-01-31T04:04:09;100975.28;;;-13.79;43.66
46846;BME280;33947;46.804;134.252;2023-01-31T04:07:22;100961.88;;;-13.64;43.42
46846;BME280;33947;46.804;134.252;2023-01-31T04:10:29;100947.69;;;-13.83;43.70
46846;BME280;33947;46.804;134.252;2023-01-31T04:13:34;100924.66;;;-13.95;43.86
46846;BME280;33947;46.804;134.252;2023-01-31T04:16:42;100934.41;;;-14.01;44.41
46846;BME280;33947;46.804;134.252;2023-01-31T04:19:46;100920.88;;;-14.00;44.48
46846;BME280;33947;46.804;134.252;2023-01-31T04:22:53;100949.28;;;-13.96;45.22
46846;BME280;33947;46.804;134.252;2023-01-31T04:25:59;100876.41;;;-14.14;44.82
46846;BME280;33947;46.804;134.252;2023-01-31T04:29:05;100871.69;;;-13.98;44.91
46846;BME280;33947;46.804;134.252;2023-01-31T04:32:10;100946.16;;;-13.59;44.99
46846;BME280;33947;46.804;134.252;2023-01-31T04:35:17;100935.72;;;-13.38;44.79
46846;BME280;33947;46.804;134.252;2023-01-31T04:38:22;100911.44;;;-13.21;43.92
46846;BME280;33947;46.804;134.252;2023-01-31T04:41:29;100939.16;;;-13.03;44.12
46846;BME280;33947;46.804;134.252;2023-01-31T04:44:35;100919.44;;;-13.28;44.34
46846;BME280;33947;46.804;134.252;2023-01-31T04:47:39;100908.66;;;-13.24;44.84
46846;BME280;33947;46.804;134.252;2023-01-31T04:50:46;100910.88;;;-13.17;45.18
46846;BME280;33947;46.804;134.252;2023-01-31T04:53:52;100921.59;;;-12.87;44.66
46846;BME280;33947;46.804;134.252;2023-01-31T04:56:56;100901.69;;;-13.03;44.30
46846;BME280;33947;46.804;134.252;2023-01-31T05:00:04;100872.31;;;-13.20;45.09
46846;BME280;33947;46.804;134.252;2023-01-31T05:03:11;100897.13;;;-12.95;44.88
46846;BME280;33947;46.804;134.252;2023-01-31T05:06:16;100898.69;;;-12.73;44.15
46846;BME280;33947;46.804;134.252;2023-01-31T05:09:30;100619.66;;;-14.46;44.50
46846;BME280;33947;46.804;134.252;2023-01-31T05:13:10;100936.81;;;-12.88;45.01
46846;BME280;33947;46.804;134.252;2023-01-31T05:17:14;100852.66;;;-12.97;44.57
46846;BME280;33947;46.804;134.252;2023-01-31T05:21:37;100944.09;;;-12.47;43.97
46846;BME280;33947;46.804;134.252;2023-01-31T05:26:17;100797.25;;;-12.85;43.30
46846;BME280;33947;46.804;134.252;2023-01-31T05:29:56;100814.59;;;-12.81;43.44
46846;BME280;33947;46.804;134.252;2023-01-31T05:33:18;100834.63;;;-12.75;43.70
46846;BME280;33947;46.804;134.252;2023-01-31T05:37:02;100684.31;;;-13.88;44.58
46846;BME280;33947;46.804;134.252;2023-01-31T05:40:37;100862.22;;;-12.95;44.25
46846;BME280;33947;46.804;134.252;2023-01-31T05:44:22;100813.97;;;-12.90;44.08
46846;BME280;33947;46.804;134.252;2023-01-31T05:47:55;100837.84;;;-12.89;44.11
46846;BME280;33947;46.804;134.252;2023-01-31T05:51:16;100867.66;;;-12.90;44.39
46846;BME280;33947;46.804;134.252;2023-01-31T05:54:47;100852.00;;;-13.06;44.73
46846;BME280;33947;46.804;134.252;2023-01-31T05:58:57;100636.94;;;-14.42;44.65
46846;BME280;33947;46.804;134.252;2023-01-31T06:02:46;100778.06;;;-13.39;44.58
46846;BME280;33947;46.804;134.252;2023-01-31T06:06:28;100826.19;;;-12.74;44.00
46846;BME280;33947;46.804;134.252;2023-01-31T06:09:49;100748.28;;;-13.62;44.56
46846;BME280;33947;46.804;134.252;2023-01-31T06:13:11;100862.56;;;-12.78;44.62
46846;BME280;33947;46.804;134.252;2023-01-31T06:16:16;100876.56;;;-12.73;44.74
46846;BME280;33947;46.804;134.252;2023-01-31T06:19:22;100887.22;;;-12.55;44.23
46846;BME280;33947;46.804;134.252;2023-01-31T06:22:29;100896.91;;;-12.74;45.04
46846;BME280;33947;46.804;134.252;2023-01-31T06:25:36;100866.09;;;-12.64;44.29
46846;BME280;33947;46.804;134.252;2023-01-31T06:28:43;100868.75;;;-12.74;44.22
46846;BME280;33947;46.804;134.252;2023-01-31T06:31:50;100874.66;;;-12.63;44.62
46846;BME280;33947;46.804;134.252;2023-01-31T06:34:58;100815.94;;;-13.10;44.62
46846;BME280;33947;46.804;134.252;2023-01-31T06:38:07;100894.47;;;-12.61;44.62
46846;BME280;33947;46.804;134.252;2023-01-31T06:41:13;100885.03;;;-12.74;45.29
46846;BME280;33947;46.804;134.252;2023-01-31T06:44:19;100884.91;;;-12.87;44.96
46846;BME280;33947;46.804;134.252;2023-01-31T06:47:25;100896.34;;;-13.06;45.40
46846;BME280;33947;46.804;134.252;2023-01-31T06:50:31;100821.50;;;-13.39;45.83
46846;BME280;33947;46.804;134.252;2023-01-31T06:53:34;100896.03;;;-12.63;44.64
46846;BME280;33947;46.804;134.252;2023-01-31T06:56:42;100831.97;;;-13.24;45.25
46846;BME280;33947;46.804;134.252;2023-01-31T06:59:47;100856.19;;;-13.19;45.27
46846;BME280;33947;46.804;134.252;2023-01-31T07:02:55;100858.31;;;-13.25;45.67
46846;BME280;33947;46.804;134.252;2023-01-31T07:06:01;100860.31;;;-13.09;45.35
46846;BME280;33947;46.804;134.252;2023-01-31T07:09:07;100814.50;;;-13.42;45.17
46846;BME280;33947;46.804;134.252;2023-01-31T07:12:12;100870.34;;;-13.00;45.53
46846;BME280;33947;46.804;134.252;2023-01-31T07:15:16;100857.00;;;-12.96;45.34
46846;BME280;33947;46.804;134.252;2023-01-31T07:18:24;100873.22;;;-12.84;44.47
46846;BME280;33947;46.804;134.252;2023-01-31T07:21:29;100805.50;;;-13.36;44.98
46846;BME280;33947;46.804;134.252;2023-01-31T07:24:36;100880.66;;;-13.11;44.84
46846;BME280;33947;46.804;134.252;2023-01-31T07:27:40;100849.16;;;-13.57;45.95
46846;BME280;33947;46.804;134.252;2023-01-31T07:30:47;100878.78;;;-13.71;46.32
46846;BME280;33947;46.804;134.252;2023-01-31T07:33:54;100766.88;;;-14.90;46.48
46846;BME280;33947;46.804;134.252;2023-01-31T07:37:00;100867.28;;;-14.55;47.66
46846;BME280;33947;46.804;134.252;2023-01-31T07:40:11;100882.56;;;-14.77;48.34
46846;BME280;33947;46.804;134.252;2023-01-31T07:43:18;100874.88;;;-15.10;48.71
46846;BME280;33947;46.804;134.252;2023-01-31T07:46:24;100890.00;;;-15.01;49.07
46846;BME280;33947;46.804;134.252;2023-01-31T07:49:31;100879.84;;;-15.22;49.19
46846;BME280;33947;46.804;134.252;2023-01-31T07:52:38;100874.16;;;-15.40;49.62
46846;BME280;33947;46.804;134.252;2023-01-31T07:55:44;100889.03;;;-15.45;50.30
46846;BME280;33947;46.804;134.252;2023-01-31T07:58:54;100886.50;;;-15.55;49.25
46846;BME280;33947;46.804;134.252;2023-01-31T08:02:00;100861.66;;;-16.09;50.25
46846;BME280;33947;46.804;134.252;2023-01-31T08:05:24;100881.59;;;-16.35;50.89
46846;BME280;33947;46.804;134.252;2023-01-31T08:08:29;100878.19;;;-16.54;51.46
46846;BME280;33947;46.804;134.252;2023-01-31T08:11:36;100887.34;;;-16.56;51.16
46846;BME280;33947;46.804;134.252;2023-01-31T08:14:40;100865.06;;;-16.89;51.47
46846;BME280;33947;46.804;134.252;2023-01-31T08:17:45;100883.28;;;-16.54;51.29
46846;BME280;33947;46.804;134.252;2023-01-31T08:20:56;100910.31;;;-17.14;51.17
46846;BME280;33947;46.804;134.252;2023-01-31T08:24:03;100901.81;;;-17.34;52.14
46846;BME280;33947;46.804;134.252;2023-01-31T08:27:09;100867.34;;;-17.59;52.41
46846;BME280;33947;46.804;134.252;2023-01-31T08:30:14;100773.75;;;-18.23;52.57
46846;BME280;33947;46.804;134.252;2023-01-31T08:33:23;100912.03;;;-17.42;53.37
46846;BME280;33947;46.804;134.252;2023-01-31T08:36:30;100908.47;;;-17.44;52.48
46846;BME280;33947;46.804;134.252;2023-01-31T08:39:36;100910.50;;;-17.40;52.66
46846;BME280;33947;46.804;134.252;2023-01-31T08:42:42;100910.47;;;-17.32;51.69
46846;BME280;33947;46.804;134.252;2023-01-31T08:45:47;100896.47;;;-17.93;51.29
46846;BME280;33947;46.804;134.252;2023-01-31T08:48:52;100896.91;;;-18.07;52.70
46846;BME280;33947;46.804;134.252;2023-01-31T08:51:58;100912.22;;;-17.78;51.59
46846;BME280;33947;46.804;134.252;2023-01-31T08:55:06;100911.88;;;-17.91;52.31
46846;BME280;33947;46.804;134.252;2023-01-31T08:58:11;100912.59;;;-18.20;52.82
46846;BME280;33947;46.804;134.252;2023-01-31T09:01:19;100914.03;;;-18.50;52.17
46846;BME280;33947;46.804;134.252;2023-01-31T09:04:27;100927.34;;;-18.61;52.96
46846;BME280;33947;46.804;134.252;2023-01-31T09:07:34;100922.84;;;-18.64;53.40
46846;BME280;33947;46.804;134.252;2023-01-31T09:10:41;100891.63;;;-18.91;53.79
46846;BME280;33947;46.804;134.252;2023-01-31T09:13:48;100880.53;;;-18.65;53.16
46846;BME280;33947;46.804;134.252;2023-01-31T09:16:56;100923.03;;;-18.80;52.88
46846;BME280;33947;46.804;134.252;2023-01-31T09:20:00;100899.25;;;-19.26;53.49
46846;BME280;33947;46.804;134.252;2023-01-31T09:23:08;100890.44;;;-19.39;53.94
46846;BME280;33947;46.804;134.252;2023-01-31T09:26:15;100911.88;;;-19.44;54.05
46846;BME280;33947;46.804;134.252;2023-01-31T09:29:22;100904.91;;;-19.46;53.65
46846;BME280;33947;46.804;134.252;2023-01-31T09:32:29;100888.69;;;-19.48;53.64
46846;BME280;33947;46.804;134.252;2023-01-31T09:35:36;100913.03;;;-19.75;53.87
46846;BME280;33947;46.804;134.252;2023-01-31T09:38:43;100924.34;;;-19.81;54.38
46846;BME280;33947;46.804;134.252;2023-01-31T09:41:59;100898.00;;;-19.91;54.95
46846;BME280;33947;46.804;134.252;2023-01-31T09:45:14;100882.53;;;-19.51;54.56
46846;BME280;33947;46.804;134.252;2023-01-31T09:52:03;100674.00;;;-21.45;54.07
46846;BME280;33947;46.804;134.252;2023-01-31T09:55:21;100915.13;;;-20.23;54.58
46846;BME280;33947;46.804;134.252;2023-01-31T10:15:31;100913.59;;;-20.63;54.51
46846;BME280;33947;46.804;134.252;2023-01-31T10:18:45;100911.13;;;-20.54;54.22
46846;BME280;33947;46.804;134.252;2023-01-31T10:21:58;100903.56;;;-20.79;54.93
46846;BME280;33947;46.804;134.252;2023-01-31T10:25:33;100902.75;;;-20.62;55.18
46846;BME280;33947;46.804;134.252;2023-01-31T10:32:58;100903.56;;;-20.79;55.04
46846;BME280;33947;46.804;134.252;2023-01-31T10:35:59;100890.03;;;-21.04;56.11
46846;BME280;33947;46.804;134.252;2023-01-31T10:39:14;100907.81;;;-21.12;55.09
46846;BME280;33947;46.804;134.252;2023-01-31T10:42:57;100894.19;;;-20.80;56.03
46846;BME280;33947;46.804;134.252;2023-01-31T10:46:11;100896.06;;;-20.61;54.50
46846;BME280;33947;46.804;134.252;2023-01-31T10:49:22;100899.19;;;-20.89;54.85
46846;BME280;33947;46.804;134.252;2023-01-31T10:55:57;100901.75;;;-21.05;54.99
46846;BME280;33947;46.804;134.252;2023-01-31T10:59:16;100898.44;;;-21.13;54.08
46846;BME280;33947;46.804;134.252;2023-01-31T11:02:27;100885.69;;;-21.30;55.24
46846;BME280;33947;46.804;134.252;2023-01-31T11:05:38;100873.09;;;-21.62;54.50
46846;BME280;33947;46.804;134.252;2023-01-31T11:08:52;100907.81;;;-21.60;55.01
46846;BME280;33947;46.804;134.252;2023-01-31T11:12:03;100901.44;;;-21.65;55.32
46846;BME280;33947;46.804;134.252;2023-01-31T11:15:17;100891.50;;;-21.79;54.86
46846;BME280;33947;46.804;134.252;2023-01-31T11:18:29;100813.41;;;-22.19;55.81
46846;BME280;33947;46.804;134.252;2023-01-31T11:21:37;100903.63;;;-21.68;55.40
46846;BME280;33947;46.804;134.252;2023-01-31T11:24:46;100909.75;;;-21.66;54.88
46846;BME280;33947;46.804;134.252;2023-01-31T11:27:57;100833.53;;;-22.11;55.12
46846;BME280;33947;46.804;134.252;2023-01-31T11:31:20;100893.25;;;-21.46;54.81
46846;BME280;33947;46.804;134.252;2023-01-31T11:34:31;100874.31;;;-21.59;54.32
46846;BME280;33947;46.804;134.252;2023-01-31T11:37:50;100882.94;;;-21.57;53.72
46846;BME280;33947;46.804;134.252;2023-01-31T11:40:55;100893.50;;;-21.36;53.93
46846;BME280;33947;46.804;134.252;2023-01-31T11:44:07;100885.78;;;-21.86;54.06
46846;BME280;33947;46.804;134.252;2023-01-31T11:47:13;100867.72;;;-22.30;54.07
46846;BME280;33947;46.804;134.252;2023-01-31T11:50:31;100874.34;;;-22.46;54.74
46846;BME280;33947;46.804;134.252;2023-01-31T11:57:36;100782.28;;;-23.14;53.57
46846;BME280;33947;46.804;134.252;2023-01-31T12:01:05;100880.72;;;-22.41;55.52
46846;BME280;33947;46.804;134.252;2023-01-31T12:04:15;100896.13;;;-22.47;55.03
46846;BME280;33947;46.804;134.252;2023-01-31T12:07:26;100853.59;;;-22.60;54.89
46846;BME280;33947;46.804;134.252;2023-01-31T12:10:45;100885.06;;;-22.63;55.93
46846;BME280;33947;46.804;134.252;2023-01-31T12:14:14;100879.72;;;-22.27;55.58
46846;BME280;33947;46.804;134.252;2023-01-31T12:17:20;100875.38;;;-21.89;53.92
46846;BME280;33947;46.804;134.252;2023-01-31T12:24:32;100883.16;;;-22.26;54.18
46846;BME280;33947;46.804;134.252;2023-01-31T12:31:13;100862.88;;;-22.75;54.35
46846;BME280;33947;46.804;134.252;2023-01-31T12:41:37;100864.38;;;-23.07;54.92
46846;BME280;33947;46.804;134.252;2023-01-31T13:06:14;100885.41;;;-22.60;54.09
46846;BME280;33947;46.804;134.252;2023-01-31T13:09:30;100847.25;;;-23.03;54.34
46846;BME280;33947;46.804;134.252;2023-01-31T13:12:36;100910.09;;;-22.95;54.49
46846;BME280;33947;46.804;134.252;2023-01-31T13:15:51;100855.91;;;-23.08;54.72
46846;BME280;33947;46.804;134.252;2023-01-31T13:19:09;100816.50;;;-23.54;55.23
46846;BME280;33947;46.804;134.252;2023-01-31T13:22:21;100795.44;;;-23.47;54.15
46846;BME280;33947;46.804;134.252;2023-01-31T13:29:02;100870.53;;;-23.50;54.30
46846;BME280;33947;46.804;134.252;2023-01-31T13:32:25;100880.97;;;-23.54;54.49
46846;BME280;33947;46.804;134.252;2023-01-31T13:35:40;100849.88;;;-23.48;53.98
46846;BME280;33947;46.804;134.252;2023-01-31T13:38:47;100887.47;;;-23.71;54.59
46846;BME280;33947;46.804;134.252;2023-01-31T13:41:54;100864.94;;;-23.40;55.10
46846;BME280;33947;46.804;134.252;2023-01-31T13:45:03;100815.38;;;-23.18;53.47
46846;BME280;33947;46.804;134.252;2023-01-31T13:48:24;100870.47;;;-23.12;52.83
46846;BME280;33947;46.804;134.252;2023-01-31T13:51:42;100847.75;;;-23.59;53.86
46846;BME280;33947;46.804;134.252;2023-01-31T13:54:58;100820.00;;;-23.75;55.04
46846;BME280;33947;46.804;134.252;2023-01-31T13:58:15;100865.59;;;-23.34;54.65
46846;BME280;33947;46.804;134.252;2023-01-31T14:01:24;100855.38;;;-23.81;55.70
46846;BME280;33947;46.804;134.252;2023-01-31T14:04:31;100895.06;;;-23.93;55.43
46846;BME280;33947;46.804;134.252;2023-01-31T14:07:44;100787.69;;;-24.77;55.60
46846;BME280;33947;46.804;134.252;2023-01-31T14:10:58;100867.38;;;-24.38;56.39
46846;BME280;33947;46.804;134.252;2023-01-31T14:20:31;100887.88;;;-23.82;55.31
46846;BME280;33947;46.804;134.252;2023-01-31T14:23:44;100874.22;;;-23.84;54.43
46846;BME280;33947;46.804;134.252;2023-01-31T14:26:53;100890.47;;;-24.04;54.32
46846;BME280;33947;46.804;134.252;2023-01-31T14:39:46;100881.53;;;-23.64;54.78
46846;BME280;33947;46.804;134.252;2023-01-31T14:50:18;100861.41;;;-24.02;55.37
46846;BME280;33947;46.804;134.252;2023-01-31T14:57:16;100836.16;;;-23.80;55.34
46846;BME280;33947;46.804;134.252;2023-01-31T15:00:30;100860.81;;;-23.47;54.21
46846;BME280;33947;46.804;134.252;2023-01-31T15:03:56;100860.50;;;-24.02;54.42
46846;BME280;33947;46.804;134.252;2023-01-31T15:14:37;100866.03;;;-24.05;53.38
46846;BME280;33947;46.804;134.252;2023-01-31T15:17:47;100844.97;;;-24.36;53.92
46846;BME280;33947;46.804;134.252;2023-01-31T15:21:00;100855.00;;;-24.36;53.76
46846;BME280;33947;46.804;134.252;2023-01-31T15:24:18;100849.63;;;-24.39;54.55
46846;BME280;33947;46.804;134.252;2023-01-31T15:27:28;100863.50;;;-23.98;53.76
46846;BME280;33947;46.804;134.252;2023-01-31T15:30:35;100871.91;;;-23.83;53.72
46846;BME280;33947;46.804;134.252;2023-01-31T15:33:49;100875.59;;;-24.10;53.72
46846;BME280;33947;46.804;134.252;2023-01-31T15:37:14;100861.28;;;-24.40;54.21
46846;BME280;33947;46.804;134.252;2023-01-31T15:40:25;100864.88;;;-24.59;56.62
46846;BME280;33947;46.804;134.252;2023-01-31T15:43:32;100849.25;;;-24.28;55.59
46846;BME280;33947;46.804;134.252;2023-01-31T15:46:43;100855.50;;;-24.24;54.32
46846;BME280;33947;46.804;134.252;2023-01-31T15:49:50;100837.22;;;-24.30;54.56
46846;BME280;33947;46.804;134.252;2023-01-31T15:52:58;100850.88;;;-24.36;53.88
46846;BME280;33947;46.804;134.252;2023-01-31T15:56:16;100857.69;;;-24.49;55.08
46846;BME280;33947;46.804;134.252;2023-01-31T15:59:24;100840.47;;;-24.39;54.42
46846;BME280;33947;46.804;134.252;2023-01-31T16:02:33;100838.88;;;-24.67;55.01
46846;BME280;33947;46.804;134.252;2023-01-31T16:05:40;100826.13;;;-24.40;54.65
46846;BME280;33947;46.804;134.252;2023-01-31T16:08:51;100814.69;;;-24.59;54.67
46846;BME280;33947;46.804;134.252;2023-01-31T16:12:07;100621.59;;;-25.91;54.97
46846;BME280;33947;46.804;134.252;2023-01-31T16:15:23;100832.25;;;-24.45;55.58
46846;BME280;33947;46.804;134.252;2023-01-31T16:18:31;100804.47;;;-24.54;54.60
46846;BME280;33947;46.804;134.252;2023-01-31T16:21:44;100837.63;;;-24.49;54.63
46846;BME280;33947;46.804;134.252;2023-01-31T16:24:58;100846.94;;;-24.55;54.65
46846;BME280;33947;46.804;134.252;2023-01-31T16:28:08;100821.50;;;-24.73;54.60
46846;BME280;33947;46.804;134.252;2023-01-31T16:31:18;100841.19;;;-24.69;55.40
46846;BME280;33947;46.804;134.252;2023-01-31T16:34:31;100828.84;;;-24.60;55.18
46846;BME280;33947;46.804;134.252;2023-01-31T16:37:40;100846.03;;;-24.34;53.66
46846;BME280;33947;46.804;134.252;2023-01-31T16:40:53;100776.56;;;-24.79;53.94
46846;BME280;33947;46.804;134.252;2023-01-31T16:44:00;100825.06;;;-24.64;54.92
46846;BME280;33947;46.804;134.252;2023-01-31T16:50:37;100822.81;;;-24.77;55.14
46846;BME280;33947;46.804;134.252;2023-01-31T16:54:18;100832.09;;;-24.68;54.52
46846;BME280;33947;46.804;134.252;2023-01-31T17:00:42;100808.94;;;-24.51;54.85
46846;BME280;33947;46.804;134.252;2023-01-31T17:07:19;100825.47;;;-24.89;54.32
46846;BME280;33947;46.804;134.252;2023-01-31T17:10:31;100708.72;;;-25.24;54.48
46846;BME280;33947;46.804;134.252;2023-01-31T17:13:35;100816.63;;;-24.28;53.84
46846;BME280;33947;46.804;134.252;2023-01-31T17:16:42;100793.53;;;-24.47;54.35
46846;BME280;33947;46.804;134.252;2023-01-31T17:19:47;100800.66;;;-24.21;52.93
46846;BME280;33947;46.804;134.252;2023-01-31T17:22:52;100801.41;;;-24.44;52.67
46846;BME280;33947;46.804;134.252;2023-01-31T17:26:13;100833.84;;;-24.31;53.63
46846;BME280;33947;46.804;134.252;2023-01-31T17:29:23;100796.56;;;-24.57;54.46
46846;BME280;33947;46.804;134.252;2023-01-31T17:32:29;100788.69;;;-24.53;54.42
46846;BME280;33947;46.804;134.252;2023-01-31T17:35:41;100819.88;;;-24.51;55.24
46846;BME280;33947;46.804;134.252;2023-01-31T17:38:47;100770.31;;;-24.15;55.02
46846;BME280;33947;46.804;134.252;2023-01-31T17:41:57;100803.53;;;-23.88;54.09
46846;BME280;33947;46.804;134.252;2023-01-31T17:45:03;100808.53;;;-23.80;53.63
46846;BME280;33947;46.804;134.252;2023-01-31T17:48:08;100816.50;;;-23.54;54.15
46846;BME280;33947;46.804;134.252;2023-01-31T17:51:22;100803.97;;;-23.61;52.56
46846;BME280;33947;46.804;134.252;2023-01-31T17:54:28;100808.59;;;-24.54;53.90
46846;BME280;33947;46.804;134.252;2023-01-31T17:57:34;100799.44;;;-24.54;54.94
46846;BME280;33947;46.804;134.252;2023-01-31T18:00:40;100739.13;;;-25.06;55.08
46846;BME280;33947;46.804;134.252;2023-01-31T18:03:46;100777.97;;;-24.81;56.00
46846;BME280;33947;46.804;134.252;2023-01-31T18:06:54;100773.59;;;-24.31;55.33
46846;BME280;33947;46.804;134.252;2023-01-31T18:10:00;100801.53;;;-24.21;54.40
46846;BME280;33947;46.804;134.252;2023-01-31T18:13:06;100786.31;;;-24.29;55.05
46846;BME280;33947;46.804;134.252;2023-01-31T18:19:53;100810.19;;;-23.95;55.12
46846;BME280;33947;46.804;134.252;2023-01-31T18:22:59;100771.88;;;-23.71;53.67
46846;BME280;33947;46.804;134.252;2023-01-31T18:26:07;100791.44;;;-24.06;53.31
46846;BME280;33947;46.804;134.252;2023-01-31T18:29:13;100779.72;;;-24.51;54.40
46846;BME280;33947;46.804;134.252;2023-01-31T18:32:24;100796.56;;;-24.35;54.97
46846;BME280;33947;46.804;134.252;2023-01-31T18:35:28;100787.59;;;-24.48;55.18
46846;BME280;33947;46.804;134.252;2023-01-31T18:38:35;100768.09;;;-24.65;55.52
46846;BME280;33947;46.804;134.252;2023-01-31T18:41:41;100773.47;;;-24.54;55.66
46846;BME280;33947;46.804;134.252;2023-01-31T18:44:46;100757.19;;;-24.72;56.02
46846;BME280;33947;46.804;134.252;2023-01-31T18:47:54;100791.53;;;-24.50;55.87
46846;BME280;33947;46.804;134.252;2023-01-31T18:51:02;100751.78;;;-24.61;56.30
46846;BME280;33947;46.804;134.252;2023-01-31T18:54:08;100768.06;;;-24.43;56.13
46846;BME280;33947;46.804;134.252;2023-01-31T18:57:14;100753.22;;;-24.63;56.21